2000 1319992000 (2000099S28037)


On this page: IBTrACS data - Map and Plots - Positions - Intensities - Original source data

Summary

Start Apr 7
End Apr 15
Basin SI
LMI 50 kt
Source reunion
In WMO? Yes
Previous storm 2000 TESSI (SP)
Previous in basin 2000 HUDAH (SI)
Concurrent storms 2000 HUDAH (SI)
2000 1319992000 (SI)
2000 PAUL (SI)
2000 INNOCENTE (SI)
2000 NEIL (SP)
2000 ROSITA (SI)
Next in basin 2000 PAUL (SI)
Next storm 2000 PAUL (SI)

top of page IBTrACS Data: File Access

top of page HURSAT Data: File Access

Image of storm

top of page Plots:

Map of storm track will not appear if FTP is down
Time series of cyclone Maximum Sustained Wind will not appear if FTP is down
Time series of cyclone Minimum Central Pressure will not appear if FTP is down

top of page Track Data:Position

reunion
Date Lat Lon
2000-04-07 12:00:00 -27.7 36.5
2000-04-07 18:00:00 -27.8 36.9
2000-04-08 00:00:00 -27.8 37.1
2000-04-08 06:00:00 -27.3 37.0
2000-04-08 12:00:00 -27.0 36.9
2000-04-08 18:00:00 -26.7 36.8
2000-04-09 00:00:00 -26.3 36.8
2000-04-09 06:00:00 -26.0 36.7
2000-04-09 12:00:00 -25.5 36.6
2000-04-09 18:00:00 -25.4 37.0
2000-04-10 00:00:00 -25.3 37.5
2000-04-10 06:00:00 -24.9 37.8
2000-04-10 12:00:00 -24.4 37.8
2000-04-10 18:00:00 -24.1 37.5
2000-04-11 00:00:00 -23.8 37.0
2000-04-11 06:00:00 -23.5 36.5
2000-04-11 12:00:00 -23.5 36.2
2000-04-11 18:00:00 -23.6 36.1
2000-04-12 00:00:00 -23.5 36.0
2000-04-12 06:00:00 -23.4 36.0
2000-04-12 12:00:00 -23.6 36.0
2000-04-12 18:00:00 -23.6 36.2
2000-04-13 00:00:00 -23.9 36.3
2000-04-13 06:00:00 -24.0 36.6
2000-04-13 12:00:00 -24.3 37.2
reunion
2000-04-13 18:00:00 -24.5 37.8
2000-04-14 00:00:00 -24.7 38.6
2000-04-14 06:00:00 -24.7 39.2
2000-04-14 12:00:00 -24.7 40.3
2000-04-14 18:00:00 -24.8 40.7
2000-04-15 00:00:00 -24.9 40.8
2000-04-15 06:00:00 -24.9 41.2
2000-04-15 12:00:00 -24.8 41.6

top of pageTrack Data:Intensity

reunion
Date Wind Pres
2000-04-07 12:00:00 20. 1012.
2000-04-07 18:00:00 20. 1012.
2000-04-08 00:00:00 20. 1012.
2000-04-08 06:00:00 20. 1012.
2000-04-08 12:00:00 25. 1010.
2000-04-08 18:00:00 25. 1010.
2000-04-09 00:00:00 20. 1010.
2000-04-09 06:00:00 20. 1010.
2000-04-09 12:00:00 20. 1010.
2000-04-09 18:00:00 20. 1010.
2000-04-10 00:00:00 25. 1010.
2000-04-10 06:00:00 25. 1010.
2000-04-10 12:00:00 25. 1008.
2000-04-10 18:00:00 25. 1008.
2000-04-11 00:00:00 25. 1008.
2000-04-11 06:00:00 25. 1008.
2000-04-11 12:00:00 30. 1005.
2000-04-11 18:00:00 35. 1003.
2000-04-12 00:00:00 40. 1000.
2000-04-12 06:00:00 45. 996.
2000-04-12 12:00:00 50. 992.
2000-04-12 18:00:00 50. 992.
2000-04-13 00:00:00 45. 996.
2000-04-13 06:00:00 40. 999.
2000-04-13 12:00:00 40. 999.
reunion
2000-04-13 18:00:00 35. 1002.
2000-04-14 00:00:00 30. 1004.
2000-04-14 06:00:00 30. 1004.
2000-04-14 12:00:00 25. 1005.
2000-04-14 18:00:00 25. 1005.
2000-04-15 00:00:00 20. 1007.
2000-04-15 06:00:00 20. 1008.
2000-04-15 12:00:00 20. 1008.

top of page Links to source data

Source Source file Format
reunion WMO-Best-Tracks.txt:Line=18712:1319992000 WMO (old format)